sensor_id;sensor_type;location;lat;lon;timestamp;pressure;altitude;pressure_sealevel;temperature;humidity
72210;BME280;60113;48.762;12.302;2023-10-09T00:02:02;97877.31;;;10.16;84.69
72210;BME280;60113;48.762;12.302;2023-10-09T00:04:51;97883.91;;;10.08;85.56
72210;BME280;60113;48.762;12.302;2023-10-09T00:07:37;97891.22;;;10.03;84.33
72210;BME280;60113;48.762;12.302;2023-10-09T00:10:23;97875.97;;;9.95;86.00
72210;BME280;60113;48.762;12.302;2023-10-09T00:13:21;97871.22;;;9.87;85.19
72210;BME280;60113;48.762;12.302;2023-10-09T00:16:21;97873.28;;;9.82;84.37
72210;BME280;60113;48.762;12.302;2023-10-09T00:19:19;97876.28;;;9.76;83.83
72210;BME280;60113;48.762;12.302;2023-10-09T00:22:17;97886.13;;;9.72;81.30
72210;BME280;60113;48.762;12.302;2023-10-09T00:25:09;97883.78;;;9.68;83.76
72210;BME280;60113;48.762;12.302;2023-10-09T00:27:55;97882.97;;;9.67;84.14
72210;BME280;60113;48.762;12.302;2023-10-09T00:30:45;97875.81;;;9.69;84.85
72210;BME280;60113;48.762;12.302;2023-10-09T00:33:30;97860.94;;;9.70;84.85
72210;BME280;60113;48.762;12.302;2023-10-09T00:36:16;97864.50;;;9.69;84.48
72210;BME280;60113;48.762;12.302;2023-10-09T00:39:05;97862.91;;;9.66;82.56
72210;BME280;60113;48.762;12.302;2023-10-09T00:42:03;97863.94;;;9.63;85.18
72210;BME280;60113;48.762;12.302;2023-10-09T00:44:51;97857.56;;;9.68;87.75
72210;BME280;60113;48.762;12.302;2023-10-09T00:47:37;97848.66;;;9.70;84.89
72210;BME280;60113;48.762;12.302;2023-10-09T00:50:26;97852.09;;;9.71;87.26
72210;BME280;60113;48.762;12.302;2023-10-09T00:53:12;97852.19;;;9.69;84.37
72210;BME280;60113;48.762;12.302;2023-10-09T00:55:59;97842.00;;;9.65;85.11
72210;BME280;60113;48.762;12.302;2023-10-09T00:59:04;97836.94;;;9.61;87.13
72210;BME280;60113;48.762;12.302;2023-10-09T01:01:54;97838.75;;;9.61;86.93
72210;BME280;60113;48.762;12.302;2023-10-09T01:04:50;97832.84;;;9.57;84.71
72210;BME280;60113;48.762;12.302;2023-10-09T01:07:37;97834.91;;;9.52;85.09
72210;BME280;60113;48.762;12.302;2023-10-09T01:10:25;97835.19;;;9.47;85.12
72210;BME280;60113;48.762;12.302;2023-10-09T01:13:19;97835.28;;;9.46;84.34
72210;BME280;60113;48.762;12.302;2023-10-09T01:16:08;97831.84;;;9.45;85.23
72210;BME280;60113;48.762;12.302;2023-10-09T01:19:01;97832.84;;;9.43;85.76
72210;BME280;60113;48.762;12.302;2023-10-09T01:21:52;97830.31;;;9.41;86.20
72210;BME280;60113;48.762;12.302;2023-10-09T01:24:38;97829.59;;;9.39;84.83
72210;BME280;60113;48.762;12.302;2023-10-09T01:27:24;97825.16;;;9.40;83.94
72210;BME280;60113;48.762;12.302;2023-10-09T01:30:17;97817.38;;;9.38;85.11
72210;BME280;60113;48.762;12.302;2023-10-09T01:33:03;97807.00;;;9.36;87.33
72210;BME280;60113;48.762;12.302;2023-10-09T01:35:57;97805.22;;;9.37;87.04
72210;BME280;60113;48.762;12.302;2023-10-09T01:38:45;97803.56;;;9.36;86.24
72210;BME280;60113;48.762;12.302;2023-10-09T01:41:33;97794.09;;;9.33;86.53
72210;BME280;60113;48.762;12.302;2023-10-09T01:44:19;97787.16;;;9.32;85.96
72210;BME280;60113;48.762;12.302;2023-10-09T01:47:05;97789.97;;;9.29;85.45
72210;BME280;60113;48.762;12.302;2023-10-09T01:49:52;97782.38;;;9.24;85.63
72210;BME280;60113;48.762;12.302;2023-10-09T01:52:39;97777.44;;;9.20;86.28
72210;BME280;60113;48.762;12.302;2023-10-09T01:55:25;97775.84;;;9.17;87.10
72210;BME280;60113;48.762;12.302;2023-10-09T01:58:15;97771.66;;;9.15;86.80
72210;BME280;60113;48.762;12.302;2023-10-09T02:01:06;97772.56;;;9.13;86.39
72210;BME280;60113;48.762;12.302;2023-10-09T02:03:52;97764.78;;;9.12;86.34
72210;BME280;60113;48.762;12.302;2023-10-09T02:06:38;97763.13;;;9.11;87.43
72210;BME280;60113;48.762;12.302;2023-10-09T02:09:23;97762.16;;;9.12;87.09
72210;BME280;60113;48.762;12.302;2023-10-09T02:12:16;97764.78;;;9.12;87.60
72210;BME280;60113;48.762;12.302;2023-10-09T02:15:03;97755.06;;;9.14;87.34
72210;BME280;60113;48.762;12.302;2023-10-09T02:18:01;97755.91;;;9.15;87.20
72210;BME280;60113;48.762;12.302;2023-10-09T02:23:57;97752.34;;;9.16;88.21
72210;BME280;60113;48.762;12.302;2023-10-09T02:26:43;97739.03;;;9.19;87.85
72210;BME280;60113;48.762;12.302;2023-10-09T02:29:37;97734.47;;;9.22;88.02
72210;BME280;60113;48.762;12.302;2023-10-09T02:32:28;97740.34;;;9.26;88.67
72210;BME280;60113;48.762;12.302;2023-10-09T02:35:13;97739.50;;;9.25;87.11
72210;BME280;60113;48.762;12.302;2023-10-09T02:38:23;97734.25;;;9.25;86.32
72210;BME280;60113;48.762;12.302;2023-10-09T02:41:09;97730.03;;;9.23;87.98
72210;BME280;60113;48.762;12.302;2023-10-09T02:43:58;97730.13;;;9.21;87.83
72210;BME280;60113;48.762;12.302;2023-10-09T02:46:55;97732.75;;;9.21;87.52
72210;BME280;60113;48.762;12.302;2023-10-09T02:49:43;97729.41;;;9.19;87.65
72210;BME280;60113;48.762;12.302;2023-10-09T02:52:29;97726.97;;;9.16;87.97
72210;BME280;60113;48.762;12.302;2023-10-09T02:55:20;97725.38;;;9.13;88.52
72210;BME280;60113;48.762;12.302;2023-10-09T02:58:12;97718.44;;;9.12;88.16
72210;BME280;60113;48.762;12.302;2023-10-09T03:01:10;97721.16;;;9.11;87.92
72210;BME280;60113;48.762;12.302;2023-10-09T03:03:56;97714.25;;;9.10;86.45
72210;BME280;60113;48.762;12.302;2023-10-09T03:06:44;97709.09;;;9.08;89.34
72210;BME280;60113;48.762;12.302;2023-10-09T03:09:37;97699.63;;;9.06;87.76
72210;BME280;60113;48.762;12.302;2023-10-09T03:12:23;97706.69;;;9.05;85.73
72210;BME280;60113;48.762;12.302;2023-10-09T03:15:12;97703.19;;;9.05;83.55
72210;BME280;60113;48.762;12.302;2023-10-09T03:17:58;97696.28;;;9.04;85.55
72210;BME280;60113;48.762;12.302;2023-10-09T03:20:44;97699.72;;;9.04;87.57
72210;BME280;60113;48.762;12.302;2023-10-09T03:23:32;97696.28;;;9.04;85.20
72210;BME280;60113;48.762;12.302;2023-10-09T03:26:19;97688.53;;;9.02;86.57
72210;BME280;60113;48.762;12.302;2023-10-09T03:29:05;97692.91;;;9.02;86.58
72210;BME280;60113;48.762;12.302;2023-10-09T03:31:52;97683.19;;;9.04;87.14
72210;BME280;60113;48.762;12.302;2023-10-09T03:34:38;97695.34;;;9.05;88.12
72210;BME280;60113;48.762;12.302;2023-10-09T03:37:24;97686.63;;;9.04;88.47
72210;BME280;60113;48.762;12.302;2023-10-09T03:40:20;97689.16;;;9.06;88.03
72210;BME280;60113;48.762;12.302;2023-10-09T03:43:05;97693.47;;;9.07;93.28
72210;BME280;60113;48.762;12.302;2023-10-09T03:45:51;97691.56;;;9.09;100.00
72210;BME280;60113;48.762;12.302;2023-10-09T03:48:39;97689.91;;;9.08;95.28
72210;BME280;60113;48.762;12.302;2023-10-09T03:51:29;97696.00;;;9.08;91.67
72210;BME280;60113;48.762;12.302;2023-10-09T03:54:15;97688.13;;;9.08;90.73
72210;BME280;60113;48.762;12.302;2023-10-09T03:57:01;97686.44;;;9.07;89.71
72210;BME280;60113;48.762;12.302;2023-10-09T03:59:47;97688.31;;;9.05;90.61
72210;BME280;60113;48.762;12.302;2023-10-09T04:02:33;97677.00;;;9.05;89.56
72210;BME280;60113;48.762;12.302;2023-10-09T04:05:19;97679.72;;;9.03;88.79
72210;BME280;60113;48.762;12.302;2023-10-09T04:08:04;97686.81;;;9.01;88.19
72210;BME280;60113;48.762;12.302;2023-10-09T04:10:59;97691.44;;;8.97;89.72
72210;BME280;60113;48.762;12.302;2023-10-09T04:13:49;97697.69;;;8.95;94.17
72210;BME280;60113;48.762;12.302;2023-10-09T04:16:35;97699.47;;;8.94;92.59
72210;BME280;60113;48.762;12.302;2023-10-09T04:19:36;97687.38;;;8.92;91.07
72210;BME280;60113;48.762;12.302;2023-10-09T04:22:33;97686.66;;;8.90;89.71
72210;BME280;60113;48.762;12.302;2023-10-09T04:25:24;97681.63;;;8.86;88.02
72210;BME280;60113;48.762;12.302;2023-10-09T04:28:27;97679.19;;;8.83;88.72
72210;BME280;60113;48.762;12.302;2023-10-09T04:31:15;97678.53;;;8.80;87.45
72210;BME280;60113;48.762;12.302;2023-10-09T04:34:06;97672.72;;;8.74;87.66
72210;BME280;60113;48.762;12.302;2023-10-09T04:37:07;97670.38;;;8.70;88.23
72210;BME280;60113;48.762;12.302;2023-10-09T04:39:58;97672.34;;;8.66;88.82
72210;BME280;60113;48.762;12.302;2023-10-09T04:42:56;97669.06;;;8.62;88.61
72210;BME280;60113;48.762;12.302;2023-10-09T04:45:48;97676.31;;;8.59;89.12
72210;BME280;60113;48.762;12.302;2023-10-09T04:48:54;97677.41;;;8.55;88.65
72210;BME280;60113;48.762;12.302;2023-10-09T04:51:40;97664.47;;;8.51;87.41
72210;BME280;60113;48.762;12.302;2023-10-09T04:54:44;97659.41;;;8.48;88.78
72210;BME280;60113;48.762;12.302;2023-10-09T04:57:51;97649.13;;;8.45;89.38
72210;BME280;60113;48.762;12.302;2023-10-09T05:00:45;97644.84;;;8.44;89.44
72210;BME280;60113;48.762;12.302;2023-10-09T05:03:48;97643.06;;;8.45;88.89
72210;BME280;60113;48.762;12.302;2023-10-09T05:06:42;97635.31;;;8.43;88.17
72210;BME280;60113;48.762;12.302;2023-10-09T05:09:28;97641.38;;;8.44;88.12
72210;BME280;60113;48.762;12.302;2023-10-09T05:12:33;97630.06;;;8.43;90.48
72210;BME280;60113;48.762;12.302;2023-10-09T05:15:19;97631.75;;;8.44;88.90
72210;BME280;60113;48.762;12.302;2023-10-09T05:18:12;97624.81;;;8.43;89.57
72210;BME280;60113;48.762;12.302;2023-10-09T05:21:02;97621.25;;;8.44;91.13
72210;BME280;60113;48.762;12.302;2023-10-09T05:24:06;97618.44;;;8.47;91.33
72210;BME280;60113;48.762;12.302;2023-10-09T05:26:59;97616.69;;;8.48;90.05
72210;BME280;60113;48.762;12.302;2023-10-09T05:30:03;97613.97;;;8.49;90.68
72210;BME280;60113;48.762;12.302;2023-10-09T05:33:09;97616.41;;;8.53;92.42
72210;BME280;60113;48.762;12.302;2023-10-09T05:36:14;97612.78;;;8.55;91.34
72210;BME280;60113;48.762;12.302;2023-10-09T05:39:05;97620.63;;;8.55;89.36
72210;BME280;60113;48.762;12.302;2023-10-09T05:42:07;97611.53;;;8.61;92.34
72210;BME280;60113;48.762;12.302;2023-10-09T05:45:04;97612.75;;;8.70;92.32
72210;BME280;60113;48.762;12.302;2023-10-09T05:48:08;97608.72;;;8.79;94.60
72210;BME280;60113;48.762;12.302;2023-10-09T05:51:03;97613.28;;;8.90;95.76
72210;BME280;60113;48.762;12.302;2023-10-09T05:53:54;97615.22;;;9.00;93.96
72210;BME280;60113;48.762;12.302;2023-10-09T05:56:59;97621.66;;;9.09;92.27
72210;BME280;60113;48.762;12.302;2023-10-09T06:00:08;97622.00;;;9.18;93.12
72210;BME280;60113;48.762;12.302;2023-10-09T06:03:13;97630.28;;;9.24;91.89
72210;BME280;60113;48.762;12.302;2023-10-09T06:06:04;97622.03;;;9.31;91.22
72210;BME280;60113;48.762;12.302;2023-10-09T06:08:51;97623.41;;;9.36;91.30
72210;BME280;60113;48.762;12.302;2023-10-09T06:11:56;97633.69;;;9.40;98.92
72210;BME280;60113;48.762;12.302;2023-10-09T06:15:02;97655.44;;;9.42;100.00
72210;BME280;60113;48.762;12.302;2023-10-09T06:18:06;97657.19;;;9.41;100.00
72210;BME280;60113;48.762;12.302;2023-10-09T06:21:11;97672.94;;;9.41;100.00
72210;BME280;60113;48.762;12.302;2023-10-09T06:24:15;97674.66;;;9.42;100.00
72210;BME280;60113;48.762;12.302;2023-10-09T06:27:00;97681.38;;;9.46;100.00
72210;BME280;60113;48.762;12.302;2023-10-09T06:29:46;97683.69;;;9.51;100.00
72210;BME280;60113;48.762;12.302;2023-10-09T06:32:34;97675.03;;;9.63;100.00
72210;BME280;60113;48.762;12.302;2023-10-09T06:35:20;97685.38;;;9.80;100.00
72210;BME280;60113;48.762;12.302;2023-10-09T06:38:12;97679.59;;;10.00;100.00
72210;BME280;60113;48.762;12.302;2023-10-09T06:41:07;97676.69;;;10.18;100.00
72210;BME280;60113;48.762;12.302;2023-10-09T06:44:12;97672.50;;;10.42;100.00
72210;BME280;60113;48.762;12.302;2023-10-09T06:47:17;97683.97;;;10.67;99.30
72210;BME280;60113;48.762;12.302;2023-10-09T06:50:04;97680.47;;;10.92;97.12
72210;BME280;60113;48.762;12.302;2023-10-09T06:53:07;97677.63;;;11.20;95.72
72210;BME280;60113;48.762;12.302;2023-10-09T06:55:56;97683.03;;;11.43;94.48
72210;BME280;60113;48.762;12.302;2023-10-09T06:58:51;97683.25;;;11.64;94.65
72210;BME280;60113;48.762;12.302;2023-10-09T07:01:40;97675.06;;;11.80;93.95
72210;BME280;60113;48.762;12.302;2023-10-09T07:04:29;97678.34;;;11.95;93.53
72210;BME280;60113;48.762;12.302;2023-10-09T07:07:18;97676.63;;;12.07;93.35
72210;BME280;60113;48.762;12.302;2023-10-09T07:10:06;97678.56;;;12.17;93.35
72210;BME280;60113;48.762;12.302;2023-10-09T07:13:11;97670.19;;;12.23;92.51
72210;BME280;60113;48.762;12.302;2023-10-09T07:15:56;97675.81;;;12.30;91.86
72210;BME280;60113;48.762;12.302;2023-10-09T07:19:00;97681.56;;;12.35;91.56
72210;BME280;60113;48.762;12.302;2023-10-09T07:21:55;97686.25;;;12.43;91.38
72210;BME280;60113;48.762;12.302;2023-10-09T07:24:40;97684.56;;;12.53;91.54
72210;BME280;60113;48.762;12.302;2023-10-09T07:27:30;97688.66;;;12.69;91.79
72210;BME280;60113;48.762;12.302;2023-10-09T07:30:36;97692.63;;;12.86;91.61
72210;BME280;60113;48.762;12.302;2023-10-09T07:33:22;97687.81;;;13.03;91.85
72210;BME280;60113;48.762;12.302;2023-10-09T07:36:16;97690.91;;;13.19;91.78
72210;BME280;60113;48.762;12.302;2023-10-09T07:39:14;97692.78;;;13.40;92.13
72210;BME280;60113;48.762;12.302;2023-10-09T07:42:04;97694.69;;;13.61;92.50
72210;BME280;60113;48.762;12.302;2023-10-09T07:45:11;97700.13;;;13.81;91.65
72210;BME280;60113;48.762;12.302;2023-10-09T07:48:06;97699.56;;;13.98;90.79
72210;BME280;60113;48.762;12.302;2023-10-09T07:50:59;97693.38;;;14.09;91.09
72210;BME280;60113;48.762;12.302;2023-10-09T07:53:45;97687.19;;;14.20;89.60
72210;BME280;60113;48.762;12.302;2023-10-09T07:56:31;97676.69;;;14.30;88.69
72210;BME280;60113;48.762;12.302;2023-10-09T07:59:23;97680.19;;;14.41;88.12
72210;BME280;60113;48.762;12.302;2023-10-09T08:02:09;97689.88;;;14.52;87.33
72210;BME280;60113;48.762;12.302;2023-10-09T08:05:02;97693.56;;;14.70;86.15
72210;BME280;60113;48.762;12.302;2023-10-09T08:07:52;97704.72;;;14.95;84.75
72210;BME280;60113;48.762;12.302;2023-10-09T08:10:43;97700.63;;;15.22;83.62
72210;BME280;60113;48.762;12.302;2023-10-09T08:13:47;97702.22;;;15.55;81.31
72210;BME280;60113;48.762;12.302;2023-10-09T08:16:42;97709.34;;;15.84;82.10
72210;BME280;60113;48.762;12.302;2023-10-09T08:19:28;97707.13;;;16.09;82.25
72210;BME280;60113;48.762;12.302;2023-10-09T08:22:30;97703.88;;;16.35;81.35
72210;BME280;60113;48.762;12.302;2023-10-09T08:25:15;97709.28;;;16.53;81.57
72210;BME280;60113;48.762;12.302;2023-10-09T08:28:13;97717.59;;;16.68;80.74
72210;BME280;60113;48.762;12.302;2023-10-09T08:30:59;97710.47;;;16.79;79.64
72210;BME280;60113;48.762;12.302;2023-10-09T08:34:06;97708.75;;;16.87;80.21
72210;BME280;60113;48.762;12.302;2023-10-09T08:36:55;97707.03;;;16.96;79.63
72210;BME280;60113;48.762;12.302;2023-10-09T08:39:40;97693.88;;;17.05;79.27
72210;BME280;60113;48.762;12.302;2023-10-09T08:42:28;97706.59;;;17.11;78.39
72210;BME280;60113;48.762;12.302;2023-10-09T08:45:15;97706.69;;;17.19;77.97
72210;BME280;60113;48.762;12.302;2023-10-09T08:48:08;97703.28;;;17.27;77.94
72210;BME280;60113;48.762;12.302;2023-10-09T08:51:03;97711.88;;;17.39;77.91
72210;BME280;60113;48.762;12.302;2023-10-09T08:53:53;97712.50;;;17.51;76.28
72210;BME280;60113;48.762;12.302;2023-10-09T08:56:38;97709.94;;;17.59;77.19
72210;BME280;60113;48.762;12.302;2023-10-09T08:59:41;97715.16;;;17.69;72.42
72210;BME280;60113;48.762;12.302;2023-10-09T09:02:27;97718.81;;;17.86;77.05
72210;BME280;60113;48.762;12.302;2023-10-09T09:05:17;97722.16;;;18.07;71.46
72210;BME280;60113;48.762;12.302;2023-10-09T09:08:03;97715.25;;;18.32;76.69
72210;BME280;60113;48.762;12.302;2023-10-09T09:14:04;97733.13;;;18.48;74.50
72210;BME280;60113;48.762;12.302;2023-10-09T09:16:51;97737.47;;;18.49;75.21
72210;BME280;60113;48.762;12.302;2023-10-09T09:19:37;97743.47;;;18.52;75.85
72210;BME280;60113;48.762;12.302;2023-10-09T09:22:23;97740.13;;;18.49;74.90
72210;BME280;60113;48.762;12.302;2023-10-09T09:25:09;97736.47;;;18.51;74.76
72210;BME280;60113;48.762;12.302;2023-10-09T09:27:56;97731.63;;;18.46;74.44
72210;BME280;60113;48.762;12.302;2023-10-09T09:30:43;97736.25;;;18.44;74.34
72210;BME280;60113;48.762;12.302;2023-10-09T09:33:32;97727.78;;;18.40;73.23
72210;BME280;60113;48.762;12.302;2023-10-09T09:36:33;97729.75;;;18.38;69.39
72210;BME280;60113;48.762;12.302;2023-10-09T09:39:25;97739.84;;;18.53;67.27
72210;BME280;60113;48.762;12.302;2023-10-09T09:42:14;97737.59;;;18.74;72.98
72210;BME280;60113;48.762;12.302;2023-10-09T09:45:01;97743.53;;;18.86;73.30
72210;BME280;60113;48.762;12.302;2023-10-09T09:47:48;97740.41;;;18.99;73.43
72210;BME280;60113;48.762;12.302;2023-10-09T09:50:39;97735.53;;;19.21;74.01
72210;BME280;60113;48.762;12.302;2023-10-09T09:53:32;97735.59;;;19.30;71.55
72210;BME280;60113;48.762;12.302;2023-10-09T09:56:23;97725.91;;;19.20;72.48
72210;BME280;60113;48.762;12.302;2023-10-09T09:59:10;97731.00;;;19.14;73.11
72210;BME280;60113;48.762;12.302;2023-10-09T10:02:10;97728.94;;;18.99;69.79
72210;BME280;60113;48.762;12.302;2023-10-09T10:05:06;97734.00;;;18.84;69.22
72210;BME280;60113;48.762;12.302;2023-10-09T10:07:53;97727.28;;;18.71;70.02
72210;BME280;60113;48.762;12.302;2023-10-09T10:10:41;97733.75;;;18.69;71.50
72210;BME280;60113;48.762;12.302;2023-10-09T10:16:26;97744.06;;;18.64;70.95
72210;BME280;60113;48.762;12.302;2023-10-09T10:19:19;97747.84;;;18.61;70.34
72210;BME280;60113;48.762;12.302;2023-10-09T10:22:24;97740.44;;;18.46;64.94
72210;BME280;60113;48.762;12.302;2023-10-09T10:28:43;97735.06;;;18.38;70.91
72210;BME280;60113;48.762;12.302;2023-10-09T10:31:58;97744.19;;;18.35;67.24
72210;BME280;60113;48.762;12.302;2023-10-09T10:37:35;97747.50;;;18.37;69.52
72210;BME280;60113;48.762;12.302;2023-10-09T10:40:29;97745.16;;;18.34;70.04
72210;BME280;60113;48.762;12.302;2023-10-09T10:43:26;97733.00;;;18.32;69.92
72210;BME280;60113;48.762;12.302;2023-10-09T10:46:19;97758.94;;;18.30;69.87
72210;BME280;60113;48.762;12.302;2023-10-09T10:49:23;97750.28;;;18.28;69.72
72210;BME280;60113;48.762;12.302;2023-10-09T10:52:22;97747.63;;;18.28;68.10
72210;BME280;60113;48.762;12.302;2023-10-09T10:55:20;97735.84;;;18.30;70.02
72210;BME280;60113;48.762;12.302;2023-10-09T10:58:16;97736.53;;;18.32;70.13
72210;BME280;60113;48.762;12.302;2023-10-09T11:01:09;97732.88;;;18.33;69.72
72210;BME280;60113;48.762;12.302;2023-10-09T11:03:59;97710.59;;;18.34;69.84
72210;BME280;60113;48.762;12.302;2023-10-09T11:06:51;97717.06;;;18.32;66.95
72210;BME280;60113;48.762;12.302;2023-10-09T11:09:50;97722.16;;;18.25;68.82
72210;BME280;60113;48.762;12.302;2023-10-09T11:13:01;97724.91;;;18.15;69.36
72210;BME280;60113;48.762;12.302;2023-10-09T11:15:53;97731.78;;;18.08;69.28
72210;BME280;60113;48.762;12.302;2023-10-09T11:18:59;97740.00;;;17.96;69.55
72210;BME280;60113;48.762;12.302;2023-10-09T11:21:59;97738.97;;;17.89;69.43
72210;BME280;60113;48.762;12.302;2023-10-09T11:24:51;97733.56;;;17.81;69.50
72210;BME280;60113;48.762;12.302;2023-10-09T11:27:56;97738.78;;;17.72;69.59
72210;BME280;60113;48.762;12.302;2023-10-09T11:30:42;97742.19;;;17.65;70.35
72210;BME280;60113;48.762;12.302;2023-10-09T11:33:43;97753.19;;;17.52;70.71
72210;BME280;60113;48.762;12.302;2023-10-09T11:36:34;97739.88;;;17.33;70.52
72210;BME280;60113;48.762;12.302;2023-10-09T11:39:30;97718.41;;;17.17;71.70
72210;BME280;60113;48.762;12.302;2023-10-09T11:42:35;97746.13;;;17.04;71.06
72210;BME280;60113;48.762;12.302;2023-10-09T11:45:26;97723.78;;;16.97;71.69
72210;BME280;60113;48.762;12.302;2023-10-09T11:48:18;97740.59;;;16.87;73.00
72210;BME280;60113;48.762;12.302;2023-10-09T11:51:33;97730.56;;;16.81;74.06
72210;BME280;60113;48.762;12.302;2023-10-09T11:54:29;97705.00;;;16.80;75.28
72210;BME280;60113;48.762;12.302;2023-10-09T11:57:16;97734.78;;;16.74;74.34
72210;BME280;60113;48.762;12.302;2023-10-09T12:00:04;97718.72;;;16.75;74.31
72210;BME280;60113;48.762;12.302;2023-10-09T12:03:08;97715.38;;;16.73;74.92
72210;BME280;60113;48.762;12.302;2023-10-09T12:05:59;97708.25;;;16.74;75.49
72210;BME280;60113;48.762;12.302;2023-10-09T12:08:50;97700.56;;;16.71;76.44
72210;BME280;60113;48.762;12.302;2023-10-09T12:11:36;97666.53;;;16.66;74.98
72210;BME280;60113;48.762;12.302;2023-10-09T12:14:22;97675.34;;;16.57;75.76
72210;BME280;60113;48.762;12.302;2023-10-09T12:17:09;97669.50;;;16.53;76.80
72210;BME280;60113;48.762;12.302;2023-10-09T12:19:54;97669.09;;;16.48;76.58
72210;BME280;60113;48.762;12.302;2023-10-09T12:22:41;97661.59;;;16.43;75.12
72210;BME280;60113;48.762;12.302;2023-10-09T12:25:27;97673.44;;;16.39;75.71
72210;BME280;60113;48.762;12.302;2023-10-09T12:28:17;97665.25;;;16.32;75.85
72210;BME280;60113;48.762;12.302;2023-10-09T12:31:05;97660.38;;;16.28;75.87
72210;BME280;60113;48.762;12.302;2023-10-09T12:33:52;97657.28;;;16.22;75.18
72210;BME280;60113;48.762;12.302;2023-10-09T12:36:38;97655.06;;;16.18;75.03
72210;BME280;60113;48.762;12.302;2023-10-09T12:39:24;97675.84;;;16.12;75.12
72210;BME280;60113;48.762;12.302;2023-10-09T12:42:09;97671.69;;;16.10;75.24
72210;BME280;60113;48.762;12.302;2023-10-09T12:44:57;97665.00;;;16.06;76.23
72210;BME280;60113;48.762;12.302;2023-10-09T12:47:43;97663.31;;;16.05;75.88
72210;BME280;60113;48.762;12.302;2023-10-09T12:50:29;97670.59;;;16.03;75.46
72210;BME280;60113;48.762;12.302;2023-10-09T12:53:18;97689.16;;;16.03;75.47
72210;BME280;60113;48.762;12.302;2023-10-09T12:56:04;97704.75;;;16.06;77.03
72210;BME280;60113;48.762;12.302;2023-10-09T12:58:50;97704.06;;;16.04;76.73
72210;BME280;60113;48.762;12.302;2023-10-09T13:01:38;97711.16;;;16.03;76.08
72210;BME280;60113;48.762;12.302;2023-10-09T13:04:30;97702.25;;;16.04;76.95
72210;BME280;60113;48.762;12.302;2023-10-09T13:07:17;97688.88;;;16.06;76.33
72210;BME280;60113;48.762;12.302;2023-10-09T13:10:07;97687.72;;;16.08;75.61
72210;BME280;60113;48.762;12.302;2023-10-09T13:12:57;97692.59;;;16.13;74.86
72210;BME280;60113;48.762;12.302;2023-10-09T13:15:43;97704.44;;;16.19;74.76
72210;BME280;60113;48.762;12.302;2023-10-09T13:18:29;97727.06;;;16.23;74.49
72210;BME280;60113;48.762;12.302;2023-10-09T13:21:36;97753.84;;;16.30;74.17
72210;BME280;60113;48.762;12.302;2023-10-09T13:24:23;97766.13;;;16.31;74.58
72210;BME280;60113;48.762;12.302;2023-10-09T13:27:15;97759.41;;;16.27;74.52
72210;BME280;60113;48.762;12.302;2023-10-09T13:30:07;97767.94;;;16.20;75.50
72210;BME280;60113;48.762;12.302;2023-10-09T13:32:54;97770.31;;;16.14;75.66
72210;BME280;60113;48.762;12.302;2023-10-09T13:35:40;97779.66;;;16.08;75.89
72210;BME280;60113;48.762;12.302;2023-10-09T13:38:33;97762.22;;;16.05;75.54
72210;BME280;60113;48.762;12.302;2023-10-09T13:41:19;97730.69;;;16.02;75.29
72210;BME280;60113;48.762;12.302;2023-10-09T13:44:05;97665.56;;;15.99;75.34
72210;BME280;60113;48.762;12.302;2023-10-09T13:46:51;97628.72;;;15.96;75.17
72210;BME280;60113;48.762;12.302;2023-10-09T13:49:37;97632.66;;;15.92;75.13
72210;BME280;60113;48.762;12.302;2023-10-09T13:52:25;97633.06;;;15.87;74.43
72210;BME280;60113;48.762;12.302;2023-10-09T13:55:12;97631.38;;;15.86;74.07
72210;BME280;60113;48.762;12.302;2023-10-09T13:58:01;97641.97;;;15.86;74.63
72210;BME280;60113;48.762;12.302;2023-10-09T14:00:46;97639.19;;;15.88;74.88
72210;BME280;60113;48.762;12.302;2023-10-09T14:03:35;97636.38;;;15.90;74.75
72210;BME280;60113;48.762;12.302;2023-10-09T14:06:24;97622.84;;;15.93;75.27
72210;BME280;60113;48.762;12.302;2023-10-09T14:09:15;97621.91;;;15.94;75.33
72210;BME280;60113;48.762;12.302;2023-10-09T14:12:13;97632.25;;;15.97;75.38
72210;BME280;60113;48.762;12.302;2023-10-09T14:15:05;97639.59;;;16.03;75.67
72210;BME280;60113;48.762;12.302;2023-10-09T14:17:50;97622.69;;;16.14;75.35
72210;BME280;60113;48.762;12.302;2023-10-09T14:20:41;97610.41;;;16.23;74.97
72210;BME280;60113;48.762;12.302;2023-10-09T14:23:26;97597.13;;;16.33;74.48
72210;BME280;60113;48.762;12.302;2023-10-09T14:26:17;97602.53;;;16.41;74.22
72210;BME280;60113;48.762;12.302;2023-10-09T14:29:03;97589.00;;;16.44;74.00
72210;BME280;60113;48.762;12.302;2023-10-09T14:31:52;97588.56;;;16.49;73.79
72210;BME280;60113;48.762;12.302;2023-10-09T14:34:45;97583.78;;;16.53;73.30
72210;BME280;60113;48.762;12.302;2023-10-09T14:37:40;97576.22;;;16.58;73.01
72210;BME280;60113;48.762;12.302;2023-10-09T14:40:26;97566.72;;;16.65;72.59
72210;BME280;60113;48.762;12.302;2023-10-09T14:43:17;97564.41;;;16.70;72.63
72210;BME280;60113;48.762;12.302;2023-10-09T14:46:12;97564.13;;;16.73;72.11
72210;BME280;60113;48.762;12.302;2023-10-09T14:48:58;97567.47;;;16.75;72.76
72210;BME280;60113;48.762;12.302;2023-10-09T14:51:46;97562.16;;;16.75;72.52
72210;BME280;60113;48.762;12.302;2023-10-09T14:54:31;97565.63;;;16.76;72.89
72210;BME280;60113;48.762;12.302;2023-10-09T14:57:17;97554.06;;;16.77;72.94
72210;BME280;60113;48.762;12.302;2023-10-09T15:00:04;97554.56;;;16.81;72.38
72210;BME280;60113;48.762;12.302;2023-10-09T15:02:59;97549.81;;;16.84;72.24
72210;BME280;60113;48.762;12.302;2023-10-09T15:05:45;97557.63;;;16.86;72.41
72210;BME280;60113;48.762;12.302;2023-10-09T15:08:31;97554.81;;;16.87;72.00
72210;BME280;60113;48.762;12.302;2023-10-09T15:11:22;97546.41;;;16.92;71.42
72210;BME280;60113;48.762;12.302;2023-10-09T15:14:08;97550.56;;;16.95;72.28
72210;BME280;60113;48.762;12.302;2023-10-09T15:16:55;97564.53;;;16.97;72.12
72210;BME280;60113;48.762;12.302;2023-10-09T15:19:41;97573.06;;;17.00;71.16